createdAt,value
2018-09-03T00:00:46.945Z,0.00
2018-09-03T00:01:47.880Z,0.00
2018-09-03T00:02:46.784Z,0.00
2018-09-03T00:03:46.716Z,0.00
2018-09-03T00:04:46.647Z,0.00
2018-09-03T00:05:46.708Z,0.00
2018-09-03T00:06:46.492Z,0.00
2018-09-03T00:07:46.390Z,0.00
2018-09-03T00:08:46.412Z,0.00
2018-09-03T00:11:28.234Z,0.00
2018-09-03T00:14:10.220Z,0.00
2018-09-03T00:15:10.138Z,0.00
2018-09-03T00:16:10.059Z,0.00
2018-09-03T00:17:10.003Z,0.00
2018-09-03T00:18:09.897Z,0.00
2018-09-03T00:19:09.825Z,0.00
2018-09-03T00:20:09.738Z,0.00
2018-09-03T00:21:09.668Z,0.00
2018-09-03T00:22:09.593Z,0.00
2018-09-03T00:23:09.499Z,0.00
2018-09-03T00:24:09.421Z,0.00
2018-09-03T00:25:09.357Z,0.00
2018-09-03T00:26:09.280Z,0.00
2018-09-03T00:27:09.216Z,0.00
2018-09-03T00:28:09.107Z,0.00
2018-09-03T00:29:09.046Z,0.00
2018-09-03T00:30:08.942Z,0.00
2018-09-03T00:31:08.872Z,0.00
2018-09-03T00:32:08.808Z,0.00
2018-09-03T00:33:08.786Z,0.00
2018-09-03T00:34:08.635Z,0.00
2018-09-03T00:35:08.558Z,0.00
2018-09-03T00:36:08.480Z,0.00
2018-09-03T00:37:08.394Z,0.00
2018-09-03T00:38:08.328Z,0.00
2018-09-03T00:39:08.264Z,0.00
2018-09-03T00:40:08.167Z,0.00
2018-09-03T00:41:08.082Z,0.00
2018-09-03T00:42:07.999Z,0.00
2018-09-03T00:43:07.959Z,0.00
2018-09-03T00:44:07.835Z,0.00
2018-09-03T00:45:07.767Z,0.00
2018-09-03T00:46:07.680Z,0.00
2018-09-03T00:47:07.608Z,0.00
2018-09-03T00:48:07.538Z,0.00
2018-09-03T00:49:07.458Z,0.00
2018-09-03T00:50:07.360Z,0.00
2018-09-03T00:51:07.299Z,0.00
2018-09-03T00:52:07.218Z,0.00
2018-09-03T00:53:07.163Z,0.00
2018-09-03T00:54:07.059Z,0.00
2018-09-03T00:55:06.985Z,0.00
2018-09-03T00:56:06.890Z,0.00
2018-09-03T00:57:06.824Z,0.00
2018-09-03T00:58:06.738Z,0.00
2018-09-03T00:59:06.678Z,0.00
2018-09-03T01:00:06.581Z,0.00
2018-09-03T01:02:48.776Z,0.00
2018-09-03T01:03:48.683Z,0.00
2018-09-03T01:04:48.562Z,0.00
2018-09-03T01:07:30.739Z,0.00
2018-09-03T01:08:30.660Z,0.00
2018-09-03T01:09:30.599Z,0.00
2018-09-03T01:10:30.499Z,0.00
2018-09-03T01:11:30.410Z,0.00
2018-09-03T01:12:30.336Z,0.00
2018-09-03T01:13:30.272Z,0.00
2018-09-03T01:14:30.186Z,0.00
2018-09-03T01:15:30.093Z,0.00
2018-09-03T01:16:30.022Z,0.00
2018-09-03T01:17:29.947Z,0.00
2018-09-03T01:18:29.860Z,0.00
2018-09-03T01:19:29.798Z,0.00
2018-09-03T01:22:11.738Z,0.00
2018-09-03T01:23:11.655Z,0.00
2018-09-03T01:24:11.594Z,0.00
2018-09-03T01:25:11.615Z,0.00
2018-09-03T01:26:11.423Z,0.00
2018-09-03T01:27:11.343Z,0.00
2018-09-03T01:28:11.304Z,0.00
2018-09-03T01:29:11.180Z,0.00
2018-09-03T01:30:11.116Z,0.00
2018-09-03T01:31:11.025Z,0.00
2018-09-03T01:32:10.938Z,0.00
2018-09-03T01:33:10.863Z,0.00
2018-09-03T01:34:10.789Z,0.00
2018-09-03T01:35:10.723Z,0.00
2018-09-03T01:37:35.235Z,0.00
2018-09-03T01:38:35.160Z,0.00
2018-09-03T01:39:35.078Z,0.00
2018-09-03T01:40:36.027Z,0.00
2018-09-03T01:41:34.925Z,0.00
2018-09-03T01:44:16.743Z,0.00
2018-09-03T01:45:16.697Z,0.00
2018-09-03T01:46:16.601Z,0.00
2018-09-03T01:47:16.513Z,0.00
2018-09-03T01:48:16.421Z,0.00
2018-09-03T01:49:16.354Z,0.00
2018-09-03T01:50:16.265Z,0.00
2018-09-03T01:51:16.246Z,0.00
2018-09-03T01:52:16.103Z,0.00
2018-09-03T01:54:58.238Z,0.00
2018-09-03T01:57:40.262Z,0.00
2018-09-03T02:01:46.767Z,0.00
2018-09-03T02:02:46.666Z,0.00
2018-09-03T02:03:46.584Z,0.00
2018-09-03T02:04:46.510Z,0.00
2018-09-03T02:05:46.431Z,0.00
2018-09-03T02:06:46.369Z,0.00
2018-09-03T02:07:46.269Z,0.00
2018-09-03T02:10:28.254Z,0.00
2018-09-03T02:11:28.199Z,0.00
2018-09-03T02:12:28.088Z,0.00
2018-09-03T02:15:10.253Z,0.00
2018-09-03T02:16:10.172Z,0.00
2018-09-03T02:17:10.117Z,0.00
2018-09-03T02:18:10.020Z,0.00
2018-09-03T02:19:09.931Z,0.00
2018-09-03T02:21:51.776Z,0.00
2018-09-03T02:22:51.689Z,0.00
2018-09-03T02:23:51.593Z,0.00
2018-09-03T02:24:51.522Z,0.00
2018-09-03T02:25:51.433Z,0.00
2018-09-03T02:26:52.379Z,0.00
2018-09-03T02:27:51.297Z,0.00
2018-09-03T02:28:51.202Z,0.00
2018-09-03T02:29:51.114Z,0.00
2018-09-03T02:30:51.061Z,0.00
2018-09-03T02:31:50.964Z,0.00
2018-09-03T02:32:50.908Z,0.00
2018-09-03T02:33:50.809Z,0.00
2018-09-03T02:34:50.730Z,0.00
2018-09-03T02:35:50.641Z,0.00
2018-09-03T02:36:50.567Z,0.00
2018-09-03T02:37:50.501Z,0.00
2018-09-03T02:38:50.406Z,0.00
2018-09-03T02:39:50.340Z,0.00
2018-09-03T02:40:50.248Z,0.00
2018-09-03T02:41:50.164Z,0.00
2018-09-03T02:42:50.110Z,0.00
2018-09-03T02:43:50.031Z,0.00
2018-09-03T02:44:49.929Z,0.00
2018-09-03T02:45:49.845Z,0.00
2018-09-03T02:46:49.772Z,0.00
2018-09-03T02:47:49.698Z,0.00
2018-09-03T02:48:49.641Z,0.00
2018-09-03T02:49:49.535Z,0.00
2018-09-03T02:50:49.460Z,0.00
2018-09-03T02:51:49.397Z,0.00
2018-09-03T02:52:49.327Z,0.00
2018-09-03T02:53:49.235Z,0.00
2018-09-03T02:54:49.200Z,0.00
2018-09-03T02:55:49.054Z,0.00
2018-09-03T02:56:48.987Z,0.00
2018-09-03T02:57:49.028Z,0.00
2018-09-03T02:58:48.845Z,0.00
2018-09-03T02:59:48.739Z,0.00
2018-09-03T03:00:48.662Z,0.00
2018-09-03T03:01:48.580Z,0.00
2018-09-03T03:04:30.782Z,0.00
2018-09-03T03:05:30.683Z,0.00
2018-09-03T03:06:30.611Z,0.00
2018-09-03T03:07:30.532Z,0.00
2018-09-03T03:08:30.446Z,0.00
2018-09-03T03:09:30.406Z,0.00
2018-09-03T03:10:30.310Z,0.00
2018-09-03T03:11:30.213Z,0.00
2018-09-03T03:12:30.145Z,0.00
2018-09-03T03:13:30.059Z,0.00
2018-09-03T03:14:29.965Z,0.00
2018-09-03T03:15:29.916Z,0.00
2018-09-03T03:16:29.842Z,0.00
2018-09-03T03:17:29.742Z,0.00
2018-09-03T03:18:29.668Z,0.00
2018-09-03T03:19:29.579Z,0.00
2018-09-03T03:20:29.635Z,0.00
2018-09-03T03:21:29.438Z,0.00
2018-09-03T03:22:29.345Z,0.00
2018-09-03T03:25:11.291Z,0.00
2018-09-03T03:27:53.279Z,0.00
2018-09-03T03:30:35.284Z,0.00
2018-09-03T03:31:35.197Z,0.00
2018-09-03T03:32:35.126Z,0.00
2018-09-03T03:33:35.042Z,0.00
2018-09-03T03:34:34.973Z,0.00
2018-09-03T03:35:34.901Z,0.00
2018-09-03T03:37:59.273Z,0.00
2018-09-03T03:38:59.201Z,0.00
2018-09-03T03:39:59.119Z,0.00
2018-09-03T03:42:36.279Z,0.00
2018-09-03T03:43:36.197Z,0.00
2018-09-03T03:44:36.116Z,0.00
2018-09-03T03:45:36.051Z,0.00
2018-09-03T03:46:35.962Z,0.00
2018-09-03T03:47:35.888Z,0.00
2018-09-03T03:50:17.793Z,0.00
2018-09-03T03:51:17.751Z,0.00
2018-09-03T03:52:17.616Z,0.00
2018-09-03T03:53:17.542Z,0.00
2018-09-03T03:54:17.471Z,0.00
2018-09-03T03:56:59.293Z,0.00
2018-09-03T03:59:41.284Z,0.00
2018-09-03T04:00:41.218Z,0.00
2018-09-03T04:01:41.141Z,0.00
2018-09-03T04:02:41.073Z,0.00
2018-09-03T04:03:40.979Z,0.00
2018-09-03T04:04:40.884Z,0.00
2018-09-03T04:05:40.803Z,0.00
2018-09-03T04:06:40.746Z,0.00
2018-09-03T04:07:40.653Z,0.00
2018-09-03T04:08:40.581Z,0.00
2018-09-03T04:09:40.482Z,0.00
2018-09-03T04:10:40.421Z,0.00
2018-09-03T04:13:04.865Z,0.00
2018-09-03T04:14:04.708Z,0.00
2018-09-03T04:15:04.618Z,0.00
2018-09-03T04:16:04.553Z,0.00
2018-09-03T04:17:04.484Z,0.00
2018-09-03T04:18:04.391Z,0.00
2018-09-03T04:19:04.363Z,0.00
2018-09-03T04:20:04.245Z,0.00
2018-09-03T04:21:04.158Z,0.00
2018-09-03T04:22:04.096Z,0.00
2018-09-03T04:23:04.096Z,0.00
2018-09-03T04:24:03.917Z,0.00
2018-09-03T04:25:03.832Z,4.00
2018-09-03T04:27:45.817Z,4.00
2018-09-03T04:30:27.791Z,4.00
2018-09-03T04:31:27.710Z,8.00
2018-09-03T04:32:27.651Z,8.00
2018-09-03T04:33:27.593Z,8.00
2018-09-03T04:34:27.477Z,12.00
2018-09-03T04:37:09.288Z,16.00
2018-09-03T04:38:09.233Z,16.00
2018-09-03T04:39:09.137Z,20.00
2018-09-03T04:40:09.063Z,20.00
2018-09-03T04:41:08.971Z,28.00
2018-09-03T04:43:50.823Z,40.00
2018-09-03T04:46:32.797Z,52.00
2018-09-03T04:47:32.721Z,60.00
2018-09-03T04:48:32.691Z,64.00
2018-09-03T04:49:32.562Z,68.00
2018-09-03T04:50:32.479Z,68.00
2018-09-03T04:51:32.413Z,68.00
2018-09-03T04:52:32.319Z,72.00
2018-09-03T04:53:32.260Z,68.00
2018-09-03T04:54:32.372Z,68.00
2018-09-03T04:58:49.543Z,84.00
2018-09-03T04:59:50.461Z,92.00
2018-09-03T05:00:49.367Z,104.00
2018-09-03T05:01:49.282Z,120.00
2018-09-03T05:02:49.196Z,140.00
2018-09-03T05:03:49.146Z,140.00
2018-09-03T05:04:49.058Z,136.00
2018-09-03T05:07:31.323Z,156.00
2018-09-03T05:08:31.231Z,160.00
2018-09-03T05:09:31.186Z,160.00
2018-09-03T05:12:13.313Z,176.00
2018-09-03T05:13:13.245Z,184.00
2018-09-03T05:14:13.153Z,184.00
2018-09-03T05:15:13.105Z,180.00
2018-09-03T05:16:12.994Z,184.00
2018-09-03T05:17:12.916Z,200.00
2018-09-03T05:18:12.843Z,212.00
2018-09-03T05:19:12.780Z,212.00
2018-09-03T05:20:12.700Z,228.00
2018-09-03T05:22:54.815Z,308.00
2018-09-03T05:23:54.732Z,336.00
2018-09-03T05:24:54.682Z,352.00
2018-09-03T05:25:54.761Z,368.00
2018-09-03T05:26:54.493Z,392.00
2018-09-03T05:27:54.498Z,424.00
2018-09-03T05:28:54.365Z,444.00
2018-09-03T05:29:55.362Z,468.00
2018-09-03T05:30:54.205Z,492.00
2018-09-03T05:31:54.222Z,540.00
2018-09-03T05:32:54.030Z,616.00
2018-09-03T05:33:54.031Z,664.00
2018-09-03T05:34:53.848Z,692.00
2018-09-03T05:35:54.080Z,740.00
2018-09-03T05:36:53.718Z,804.00
2018-09-03T05:37:54.256Z,896.00
2018-09-03T05:38:53.555Z,1004.00
2018-09-03T05:41:35.837Z,1260.00
2018-09-03T05:42:35.857Z,1364.00
2018-09-03T05:43:35.804Z,1424.00
2018-09-03T05:44:35.667Z,1452.00
2018-09-03T05:45:35.492Z,1488.00
2018-09-03T05:46:35.502Z,1532.00
2018-09-03T05:47:35.341Z,1604.00
2018-09-03T05:48:35.294Z,1688.00
2018-09-03T05:49:35.186Z,1748.00
2018-09-03T05:50:35.264Z,1764.00
2018-09-03T05:51:35.043Z,1716.00
2018-09-03T05:52:34.999Z,1664.00
2018-09-03T05:53:34.866Z,1628.00
2018-09-03T05:54:34.812Z,1664.00
2018-09-03T05:55:34.722Z,1752.00
2018-09-03T05:56:34.767Z,1828.00
2018-09-03T05:57:34.545Z,1872.00
2018-09-03T05:58:34.478Z,1916.00
2018-09-03T05:59:34.391Z,1980.00
2018-09-03T06:00:34.314Z,2032.00
2018-09-03T06:01:34.255Z,2028.00
2018-09-03T06:02:34.156Z,1992.00
2018-09-03T06:03:34.092Z,2020.00
2018-09-03T06:06:16.364Z,2656.00
2018-09-03T06:07:16.279Z,2840.00
2018-09-03T06:08:16.168Z,2912.00
2018-09-03T06:09:16.090Z,2952.00
2018-09-03T06:10:16.000Z,3040.00
2018-09-03T06:11:16.013Z,3172.00
2018-09-03T06:12:15.873Z,3260.00
2018-09-03T06:13:15.775Z,3296.00
2018-09-03T06:14:15.699Z,3380.00
2018-09-03T06:15:15.615Z,3532.00
2018-09-03T06:16:15.541Z,3600.00
2018-09-03T06:17:15.478Z,3556.00
2018-09-03T06:18:15.380Z,3516.00
2018-09-03T06:19:15.346Z,3496.00
2018-09-03T06:20:15.218Z,3556.00
2018-09-03T06:21:15.158Z,3684.00
2018-09-03T06:22:15.073Z,3784.00
2018-09-03T06:23:15.012Z,3864.00
2018-09-03T06:24:15.009Z,3836.00
2018-09-03T06:26:56.829Z,3696.00
2018-09-03T06:27:57.843Z,3644.00
2018-09-03T06:28:56.668Z,3604.00
2018-09-03T06:29:56.623Z,3488.00
2018-09-03T06:30:56.519Z,3336.00
2018-09-03T06:31:56.440Z,3072.00
2018-09-03T06:32:56.390Z,2796.00
2018-09-03T06:33:57.308Z,2616.00
2018-09-03T06:34:56.217Z,2376.00
2018-09-03T06:37:38.347Z,2168.00
2018-09-03T06:40:20.385Z,2332.00
2018-09-03T06:41:20.283Z,2180.00
2018-09-03T06:42:20.188Z,2004.00
2018-09-03T06:43:21.116Z,1848.00
2018-09-03T06:44:20.021Z,1864.00
2018-09-03T06:45:19.967Z,1900.00
2018-09-03T06:46:19.882Z,2032.00
2018-09-03T06:47:19.814Z,2256.00
2018-09-03T06:48:19.802Z,2220.00
2018-09-03T06:49:21.636Z,1988.00
2018-09-03T06:50:19.546Z,1664.00
2018-09-03T06:51:19.470Z,1484.00
2018-09-03T06:52:19.396Z,1468.00
2018-09-03T06:53:19.354Z,1404.00
2018-09-03T06:54:19.247Z,1340.00
2018-09-03T06:55:19.162Z,1264.00
2018-09-03T06:56:19.097Z,1144.00
2018-09-03T07:08:42.175Z,3100.00
2018-09-03T07:09:42.082Z,3092.00
2018-09-03T07:10:42.026Z,3036.00
2018-09-03T07:11:41.923Z,3052.00
2018-09-03T07:12:41.949Z,3088.00
2018-09-03T07:13:41.754Z,3016.00
2018-09-03T07:14:41.688Z,2628.00
2018-09-03T07:15:41.761Z,2204.00
2018-09-03T07:16:41.563Z,2000.00
2018-09-03T07:17:41.437Z,1920.00
2018-09-03T07:18:41.376Z,1956.00
2018-09-03T07:19:41.313Z,2116.00
2018-09-03T07:20:41.262Z,2316.00
2018-09-03T07:21:41.125Z,2396.00
2018-09-03T07:22:41.063Z,2360.00
2018-09-03T07:23:40.992Z,2376.00
2018-09-03T07:24:40.902Z,2456.00
2018-09-03T07:25:40.810Z,2576.00
2018-09-03T07:26:41.764Z,2764.00
2018-09-03T07:27:40.652Z,3124.00
2018-09-03T07:28:40.588Z,3584.00
2018-09-03T07:29:40.521Z,3996.00
2018-09-03T07:32:22.879Z,4652.00
2018-09-03T07:33:22.771Z,5064.00
2018-09-03T07:34:22.685Z,5572.00
2018-09-03T07:37:04.890Z,5968.00
2018-09-03T07:38:04.845Z,5908.00
2018-09-03T07:39:04.692Z,5552.00
2018-09-03T07:41:46.892Z,4212.00
2018-09-03T07:44:28.869Z,3360.00
2018-09-03T07:45:28.867Z,2808.00
2018-09-03T07:46:28.726Z,2524.00
2018-09-03T07:47:28.756Z,2280.00
2018-09-03T07:48:28.554Z,2144.00
2018-09-03T07:49:28.477Z,1988.00
2018-09-03T07:50:28.427Z,1984.00
2018-09-03T07:51:28.326Z,2052.00
2018-09-03T07:52:28.264Z,2084.00
2018-09-03T07:55:10.401Z,1872.00
2018-09-03T07:57:52.383Z,1804.00
2018-09-03T07:58:52.282Z,1692.00
2018-09-03T07:59:52.195Z,1600.00
2018-09-03T08:00:52.150Z,1648.00
2018-09-03T08:01:52.041Z,1776.00
2018-09-03T08:02:52.987Z,1764.00
2018-09-03T08:03:51.914Z,1712.00
2018-09-03T08:04:51.840Z,1684.00
2018-09-03T08:05:51.729Z,1708.00
2018-09-03T08:06:51.721Z,1748.00
2018-09-03T08:07:51.614Z,1696.00
2018-09-03T08:08:51.494Z,1604.00
2018-09-03T08:09:51.555Z,1532.00
2018-09-03T08:12:33.369Z,1616.00
2018-09-03T08:13:33.322Z,1604.00
2018-09-03T08:14:33.208Z,1568.00
2018-09-03T08:15:33.142Z,1660.00
2018-09-03T08:16:33.040Z,1800.00
2018-09-03T08:19:14.905Z,1900.00
2018-09-03T08:21:56.877Z,1568.00
2018-09-03T08:22:56.788Z,1572.00
2018-09-03T08:23:56.772Z,1648.00
2018-09-03T08:24:56.631Z,1748.00
2018-09-03T08:25:56.542Z,1744.00
2018-09-03T08:26:56.474Z,1748.00
2018-09-03T08:27:56.389Z,1772.00
2018-09-03T08:28:56.388Z,1852.00
2018-09-03T08:29:56.278Z,1812.00
2018-09-03T08:30:56.162Z,1748.00
2018-09-03T08:34:03.908Z,2392.00
2018-09-03T08:35:03.794Z,2672.00
2018-09-03T08:36:03.712Z,2904.00
2018-09-03T08:37:03.647Z,2748.00
2018-09-03T08:38:03.547Z,2524.00
2018-09-03T08:39:03.503Z,2192.00
2018-09-03T08:40:03.605Z,2064.00
2018-09-03T08:41:03.322Z,2128.00
2018-09-03T08:42:03.279Z,2364.00
2018-09-03T08:44:45.448Z,2868.00
2018-09-03T08:45:45.291Z,3148.00
2018-09-03T08:46:45.209Z,3360.00
2018-09-03T08:47:45.133Z,3460.00
2018-09-03T08:48:45.068Z,3204.00
2018-09-03T08:49:44.992Z,2760.00
2018-09-03T08:50:44.895Z,2480.00
2018-09-03T08:51:44.839Z,2532.00
2018-09-03T08:52:44.745Z,2892.00
2018-09-03T08:53:44.674Z,3332.00
2018-09-03T08:54:44.603Z,3616.00
2018-09-03T08:55:44.525Z,3536.00
2018-09-03T08:56:44.472Z,3388.00
2018-09-03T08:57:44.369Z,3412.00
2018-09-03T08:58:44.258Z,3576.00
2018-09-03T08:59:44.205Z,3392.00
2018-09-03T09:00:44.125Z,3152.00
2018-09-03T09:03:26.375Z,3328.00
2018-09-03T09:06:08.406Z,3288.00
2018-09-03T09:07:08.313Z,3384.00
2018-09-03T09:08:08.211Z,3568.00
2018-09-03T09:31:47.927Z,5172.00
2018-09-03T09:32:47.807Z,6300.00
2018-09-03T09:33:47.723Z,7012.00
2018-09-03T09:34:47.705Z,6904.00
2018-09-03T09:35:47.630Z,6516.00
2018-09-03T09:36:47.550Z,5796.00
2018-09-03T09:37:47.432Z,5016.00
2018-09-03T09:40:29.398Z,4056.00
2018-09-03T09:41:29.348Z,3948.00
2018-09-03T09:42:29.252Z,3888.00
2018-09-03T09:45:11.389Z,3172.00
2018-09-03T09:47:53.426Z,5168.00
2018-09-03T09:48:53.328Z,5788.00
2018-09-03T09:49:53.234Z,5776.00
2018-09-03T09:50:53.170Z,6048.00
2018-09-03T09:51:53.111Z,5972.00
2018-09-03T09:52:52.995Z,5832.00
2018-09-03T09:53:52.931Z,6896.00
2018-09-03T09:54:52.866Z,9380.00
2018-09-03T09:55:52.761Z,11772.00
2018-09-03T09:56:52.712Z,13240.00
2018-09-03T09:57:52.635Z,12752.00
2018-09-03T09:58:52.532Z,9772.00
2018-09-03T09:59:52.448Z,8200.00
2018-09-03T10:02:34.431Z,11656.00
2018-09-03T10:03:34.339Z,10944.00
2018-09-03T10:04:34.303Z,9916.00
2018-09-03T10:05:34.182Z,9792.00
2018-09-03T10:06:34.089Z,10868.00
2018-09-03T10:07:34.062Z,11640.00
2018-09-03T10:08:33.933Z,12680.00
2018-09-03T10:09:33.879Z,14184.00
2018-09-03T10:10:33.767Z,15004.00
2018-09-03T10:13:15.937Z,9700.00
2018-09-03T10:15:57.912Z,14636.00
2018-09-03T10:16:57.839Z,25312.00
2018-09-03T10:17:57.774Z,31264.00
2018-09-03T10:18:57.694Z,21504.00
2018-09-03T10:19:57.604Z,21120.00
2018-09-03T10:22:39.946Z,14508.00
2018-09-03T10:25:21.911Z,9468.00
2018-09-03T10:26:21.865Z,9420.00
2018-09-03T10:27:21.744Z,9860.00
2018-09-03T10:28:21.698Z,10752.00
2018-09-03T10:29:21.584Z,10084.00
2018-09-03T10:30:21.516Z,10280.00
2018-09-03T10:31:21.439Z,11132.00
2018-09-03T10:32:21.370Z,11056.00
2018-09-03T10:33:21.396Z,10896.00
2018-09-03T10:34:21.279Z,11492.00
2018-09-03T10:35:21.169Z,10384.00
2018-09-03T10:38:03.486Z,8936.00
2018-09-03T10:39:03.372Z,9400.00
2018-09-03T10:40:03.257Z,9696.00
2018-09-03T10:41:03.202Z,9308.00
2018-09-03T10:42:03.104Z,8972.00
2018-09-03T10:44:45.571Z,9876.00
2018-09-03T10:45:45.389Z,10108.00
2018-09-03T10:46:45.251Z,9976.00
2018-09-03T10:47:45.252Z,9672.00
2018-09-03T10:48:45.112Z,9548.00
2018-09-03T10:49:45.066Z,9848.00
2018-09-03T10:50:44.960Z,11620.00
2018-09-03T10:53:26.925Z,13848.00
2018-09-03T10:54:26.861Z,12536.00
2018-09-03T10:55:26.786Z,12052.00
2018-09-03T10:58:08.923Z,15728.00
2018-09-03T10:59:08.866Z,17920.00
2018-09-03T11:00:08.788Z,18432.00
2018-09-03T11:01:08.714Z,17696.00
2018-09-03T11:02:08.612Z,16896.00
2018-09-03T11:03:08.547Z,14760.00
2018-09-03T11:04:08.483Z,12600.00
2018-09-03T11:05:08.443Z,11328.00
2018-09-03T11:06:08.314Z,10880.00
2018-09-03T11:07:08.229Z,11656.00
2018-09-03T11:08:08.145Z,12564.00
2018-09-03T11:09:08.081Z,12596.00
2018-09-03T11:10:08.009Z,12584.00
2018-09-03T11:11:07.974Z,12508.00
2018-09-03T11:21:48.627Z,12908.00
2018-09-03T11:22:48.516Z,12076.00
2018-09-03T11:23:48.439Z,10540.00
2018-09-03T11:24:48.369Z,9860.00
2018-09-03T11:27:30.469Z,10228.00
2018-09-03T11:28:30.368Z,9700.00
2018-09-03T11:29:30.272Z,9164.00
2018-09-03T11:30:30.215Z,9196.00
2018-09-03T11:31:30.152Z,10040.00
2018-09-03T11:32:30.061Z,10992.00
2018-09-03T11:33:29.988Z,11816.00
2018-09-03T11:34:29.926Z,12444.00
2018-09-03T11:35:29.821Z,13108.00
2018-09-03T11:36:29.738Z,13544.00
2018-09-03T11:37:29.679Z,14948.00
2018-09-03T11:38:29.594Z,16160.00
2018-09-03T11:39:29.511Z,16416.00
2018-09-03T11:40:29.457Z,16320.00
2018-09-03T11:41:29.367Z,14216.00
2018-09-03T11:42:29.359Z,13212.00
2018-09-03T11:43:29.202Z,13568.00
2018-09-03T11:44:29.127Z,14216.00
2018-09-03T11:45:29.054Z,11776.00
2018-09-03T11:46:29.001Z,10908.00
2018-09-03T11:47:28.919Z,9688.00
2018-09-03T11:50:10.933Z,11168.00
2018-09-03T11:51:10.890Z,12460.00
2018-09-03T11:52:10.790Z,14760.00
2018-09-03T11:53:10.742Z,16928.00
2018-09-03T11:54:10.631Z,17952.00
2018-09-03T11:55:10.567Z,14724.00
2018-09-03T11:56:10.515Z,11948.00
2018-09-03T11:57:10.410Z,9396.00
2018-09-03T11:58:10.360Z,7696.00
2018-09-03T11:59:10.299Z,7956.00
2018-09-03T12:00:10.181Z,8868.00
2018-09-03T12:01:10.131Z,9864.00
2018-09-03T12:02:10.087Z,10644.00
2018-09-03T12:03:09.963Z,12192.00
2018-09-03T12:04:09.915Z,11924.00
2018-09-03T12:05:09.795Z,10948.00
2018-09-03T12:06:09.705Z,10740.00
2018-09-03T12:07:09.705Z,11960.00
2018-09-03T12:08:09.578Z,13316.00
2018-09-03T12:10:51.439Z,14436.00
2018-09-03T12:11:52.524Z,16320.00
2018-09-03T12:12:51.295Z,17568.00
2018-09-03T12:13:51.261Z,19520.00
2018-09-03T12:14:51.138Z,19488.00
2018-09-03T12:15:51.080Z,20128.00
2018-09-03T12:16:51.016Z,18496.00
2018-09-03T12:17:50.935Z,18368.00
2018-09-03T12:18:50.863Z,18880.00
2018-09-03T12:19:50.816Z,21088.00
2018-09-03T12:20:50.714Z,20288.00
2018-09-03T12:21:50.604Z,19168.00
2018-09-03T12:22:50.552Z,17216.00
2018-09-03T12:23:50.493Z,16288.00
2018-09-03T12:24:50.401Z,15628.00
2018-09-03T12:27:32.497Z,12684.00
2018-09-03T12:28:32.380Z,12184.00
2018-09-03T12:29:32.366Z,12512.00
2018-09-03T12:30:32.226Z,12936.00
2018-09-03T12:31:32.153Z,13544.00
2018-09-03T12:32:32.080Z,14256.00
2018-09-03T12:33:32.011Z,14576.00
2018-09-03T12:34:32.980Z,14272.00
2018-09-03T12:35:31.854Z,14392.00
2018-09-03T12:36:31.840Z,14816.00
2018-09-03T12:37:31.680Z,15272.00
2018-09-03T12:38:31.619Z,16800.00
2018-09-03T12:39:31.561Z,16384.00
2018-09-03T12:40:31.483Z,15356.00
2018-09-03T12:55:54.436Z,10504.00
2018-09-03T12:56:54.348Z,11340.00
2018-09-03T12:57:54.280Z,13104.00
2018-09-03T12:58:54.203Z,14368.00
2018-09-03T13:01:36.490Z,12644.00
2018-09-03T13:02:39.418Z,11540.00
2018-09-03T13:03:36.311Z,11304.00
2018-09-03T13:04:36.276Z,11188.00
2018-09-03T13:05:36.180Z,9932.00
2018-09-03T13:06:36.087Z,9296.00
2018-09-03T13:07:36.012Z,8768.00
2018-09-03T13:08:35.945Z,8184.00
2018-09-03T13:09:35.880Z,7868.00
2018-09-03T13:12:18.147Z,7624.00
2018-09-03T13:13:18.055Z,7388.00
2018-09-03T13:14:17.826Z,6976.00
2018-09-03T13:15:17.809Z,6884.00
2018-09-03T13:16:17.694Z,7324.00
2018-09-03T13:17:17.584Z,8248.00
2018-09-03T13:18:17.501Z,9588.00
2018-09-03T13:19:17.437Z,10804.00
2018-09-03T13:20:17.383Z,11292.00
2018-09-03T13:21:17.283Z,11240.00
2018-09-03T13:22:17.207Z,11432.00
2018-09-03T13:24:59.487Z,11432.00
2018-09-03T13:27:41.531Z,6600.00
2018-09-03T13:28:41.447Z,6356.00
2018-09-03T13:31:05.979Z,10660.00
2018-09-03T13:32:05.918Z,12892.00
2018-09-03T13:33:05.816Z,13140.00
2018-09-03T13:35:48.016Z,13124.00
2018-09-03T13:36:47.907Z,12504.00
2018-09-03T13:37:47.832Z,11208.00
2018-09-03T13:40:30.323Z,9908.00
2018-09-03T13:41:30.656Z,10104.00
2018-09-03T13:42:29.956Z,10304.00
2018-09-03T13:43:29.748Z,10888.00
2018-09-03T13:44:29.669Z,11572.00
2018-09-03T13:45:29.614Z,12588.00
2018-09-03T13:46:29.560Z,13180.00
2018-09-03T13:47:29.480Z,13036.00
2018-09-03T13:48:29.374Z,12924.00
2018-09-03T13:49:29.300Z,12848.00
2018-09-03T13:50:29.277Z,12748.00
2018-09-03T13:51:29.187Z,11388.00
2018-09-03T13:52:29.069Z,12920.00
2018-09-03T13:53:28.996Z,12692.00
2018-09-03T13:54:28.907Z,12156.00
2018-09-03T13:58:16.038Z,9464.00
2018-09-03T13:59:15.916Z,9240.00
2018-09-03T14:00:15.832Z,9168.00
2018-09-03T14:02:58.011Z,9424.00
2018-09-03T14:05:39.993Z,8540.00
2018-09-03T14:06:39.906Z,7848.00
2018-09-03T14:07:39.881Z,7584.00
2018-09-03T14:08:39.765Z,7388.00
2018-09-03T14:09:39.722Z,7384.00
2018-09-03T14:10:39.751Z,7348.00
2018-09-03T14:11:39.552Z,7376.00
2018-09-03T14:12:39.500Z,7476.00
2018-09-03T14:13:39.432Z,7664.00
2018-09-03T14:14:39.314Z,7980.00
2018-09-03T14:15:39.240Z,8292.00
2018-09-03T14:16:39.156Z,8756.00
2018-09-03T14:17:39.106Z,9300.00
2018-09-03T14:18:39.009Z,9400.00
2018-09-03T14:19:38.996Z,9608.00
2018-09-03T14:20:38.860Z,9348.00
2018-09-03T14:21:38.779Z,9296.00
2018-09-03T14:24:21.004Z,9788.00
2018-09-03T14:25:20.950Z,9652.00
2018-09-03T14:26:20.834Z,9356.00
2018-09-03T14:27:20.777Z,8860.00
2018-09-03T14:28:20.745Z,8396.00
2018-09-03T14:29:20.634Z,8056.00
2018-09-03T14:30:20.595Z,7832.00
2018-09-03T14:33:02.488Z,7316.00
2018-09-03T14:34:02.432Z,7200.00
2018-09-03T14:35:02.389Z,6944.00
2018-09-03T14:36:02.336Z,6636.00
2018-09-03T14:37:02.252Z,6264.00
2018-09-03T14:38:02.130Z,5868.00
2018-09-03T14:52:42.685Z,5528.00
2018-09-03T14:53:42.608Z,5524.00
2018-09-03T14:54:42.567Z,5664.00
2018-09-03T14:55:42.448Z,5544.00
2018-09-03T14:56:42.377Z,5436.00
2018-09-03T14:59:24.514Z,4640.00
2018-09-03T15:00:24.456Z,4324.00
2018-09-03T15:01:24.385Z,4020.00
2018-09-03T15:02:24.428Z,3892.00
2018-09-03T15:03:24.201Z,3864.00
2018-09-03T15:06:06.528Z,3776.00
2018-09-03T15:08:48.525Z,3860.00
2018-09-03T15:09:48.458Z,3884.00
2018-09-03T15:10:48.383Z,3908.00
2018-09-03T15:11:49.301Z,3976.00
2018-09-03T15:12:48.199Z,3980.00
2018-09-03T15:13:48.140Z,4000.00
2018-09-03T15:14:48.109Z,4056.00
2018-09-03T15:15:47.985Z,4116.00
2018-09-03T15:16:47.940Z,4184.00
2018-09-03T15:17:47.817Z,4328.00
2018-09-03T15:18:47.740Z,4344.00
2018-09-03T15:19:47.676Z,4452.00
2018-09-03T15:20:47.589Z,4660.00
2018-09-03T15:21:47.512Z,4840.00
2018-09-03T15:22:47.457Z,4948.00
2018-09-03T15:23:47.375Z,5052.00
2018-09-03T15:24:47.277Z,4936.00
2018-09-03T15:25:47.212Z,4816.00
2018-09-03T15:26:47.139Z,4724.00
2018-09-03T15:27:47.078Z,4800.00
2018-09-03T15:28:46.975Z,4756.00
2018-09-03T15:31:29.020Z,5204.00
2018-09-03T15:32:28.978Z,5532.00
2018-09-03T15:33:28.865Z,5652.00
2018-09-03T15:34:28.785Z,5612.00
2018-09-03T15:35:28.703Z,5404.00
2018-09-03T15:38:11.040Z,4960.00
2018-09-03T15:39:10.955Z,4704.00
2018-09-03T15:40:10.879Z,4500.00
2018-09-03T15:42:53.095Z,4160.00
2018-09-03T15:43:52.970Z,4124.00
2018-09-03T15:44:52.868Z,3956.00
2018-09-03T15:45:52.810Z,3704.00
2018-09-03T15:46:52.722Z,3484.00
2018-09-03T15:47:52.692Z,3300.00
2018-09-03T15:48:52.594Z,3128.00
2018-09-03T15:52:32.606Z,3240.00
2018-09-03T15:53:32.476Z,3352.00
2018-09-03T15:54:32.379Z,3444.00
2018-09-03T15:55:32.294Z,3588.00
2018-09-03T15:56:32.226Z,3656.00
2018-09-03T15:57:32.153Z,3776.00
2018-09-03T15:58:32.112Z,3816.00
2018-09-03T15:59:32.021Z,3760.00
2018-09-03T16:00:31.922Z,3792.00
2018-09-03T16:01:31.845Z,3772.00
2018-09-03T16:02:31.772Z,3832.00
2018-09-03T16:03:31.690Z,3964.00
2018-09-03T16:04:31.641Z,3980.00